sensor_id;sensor_type;location;lat;lon;timestamp;pressure;altitude;pressure_sealevel;temperature
15626;BMP180;7912;51.376;6.126;2023-08-24T00:00:53;101519.00;;;23.00
15626;BMP180;7912;51.376;6.126;2023-08-24T00:03:20;101505.00;;;23.00
15626;BMP180;7912;51.376;6.126;2023-08-24T00:05:51;101500.00;;;23.00
15626;BMP180;7912;51.376;6.126;2023-08-24T00:08:19;101492.00;;;22.90
15626;BMP180;7912;51.376;6.126;2023-08-24T00:10:46;101492.00;;;23.00
15626;BMP180;7912;51.376;6.126;2023-08-24T00:13:14;101504.00;;;22.90
15626;BMP180;7912;51.376;6.126;2023-08-24T00:15:42;101511.00;;;22.90
15626;BMP180;7912;51.376;6.126;2023-08-24T00:18:10;101507.00;;;22.90
15626;BMP180;7912;51.376;6.126;2023-08-24T00:20:38;101498.00;;;22.90
15626;BMP180;7912;51.376;6.126;2023-08-24T00:23:05;101496.00;;;22.90
15626;BMP180;7912;51.376;6.126;2023-08-24T00:25:32;101489.00;;;22.90
15626;BMP180;7912;51.376;6.126;2023-08-24T00:27:59;101501.00;;;22.80
15626;BMP180;7912;51.376;6.126;2023-08-24T00:30:27;101494.00;;;22.80
15626;BMP180;7912;51.376;6.126;2023-08-24T00:32:54;101495.00;;;22.80
15626;BMP180;7912;51.376;6.126;2023-08-24T00:35:21;101494.00;;;22.80
15626;BMP180;7912;51.376;6.126;2023-08-24T00:37:49;101494.00;;;22.80
15626;BMP180;7912;51.376;6.126;2023-08-24T00:40:18;101492.00;;;22.80
15626;BMP180;7912;51.376;6.126;2023-08-24T00:42:45;101491.00;;;22.80
15626;BMP180;7912;51.376;6.126;2023-08-24T00:45:13;101485.00;;;22.80
15626;BMP180;7912;51.376;6.126;2023-08-24T00:47:44;101485.00;;;22.80
15626;BMP180;7912;51.376;6.126;2023-08-24T00:50:12;101479.00;;;22.70
15626;BMP180;7912;51.376;6.126;2023-08-24T00:52:42;101489.00;;;22.80
15626;BMP180;7912;51.376;6.126;2023-08-24T00:55:10;101492.00;;;22.70
15626;BMP180;7912;51.376;6.126;2023-08-24T00:57:39;101485.00;;;22.70
15626;BMP180;7912;51.376;6.126;2023-08-24T01:00:08;101491.00;;;22.70
15626;BMP180;7912;51.376;6.126;2023-08-24T01:02:38;101480.00;;;22.70
15626;BMP180;7912;51.376;6.126;2023-08-24T01:05:07;101485.00;;;22.70
15626;BMP180;7912;51.376;6.126;2023-08-24T01:07:39;101480.00;;;22.70
15626;BMP180;7912;51.376;6.126;2023-08-24T01:10:10;101465.00;;;22.70
15626;BMP180;7912;51.376;6.126;2023-08-24T01:16:03;101466.00;;;22.70
15626;BMP180;7912;51.376;6.126;2023-08-24T01:18:33;101460.00;;;22.70
15626;BMP180;7912;51.376;6.126;2023-08-24T01:21:05;101464.00;;;22.70
15626;BMP180;7912;51.376;6.126;2023-08-24T01:23:46;101466.00;;;22.60
15626;BMP180;7912;51.376;6.126;2023-08-24T01:26:20;101461.00;;;22.60
15626;BMP180;7912;51.376;6.126;2023-08-24T01:28:48;101466.00;;;22.60
15626;BMP180;7912;51.376;6.126;2023-08-24T01:31:16;101462.00;;;22.60
15626;BMP180;7912;51.376;6.126;2023-08-24T01:33:45;101466.00;;;22.60
15626;BMP180;7912;51.376;6.126;2023-08-24T01:36:15;101478.00;;;22.60
15626;BMP180;7912;51.376;6.126;2023-08-24T01:38:48;101473.00;;;22.60
15626;BMP180;7912;51.376;6.126;2023-08-24T01:41:28;101471.00;;;22.50
15626;BMP180;7912;51.376;6.126;2023-08-24T01:44:00;101468.00;;;22.50
15626;BMP180;7912;51.376;6.126;2023-08-24T01:46:31;101453.00;;;22.50
15626;BMP180;7912;51.376;6.126;2023-08-24T01:48:59;101451.00;;;22.50
15626;BMP180;7912;51.376;6.126;2023-08-24T01:51:27;101434.00;;;22.50
15626;BMP180;7912;51.376;6.126;2023-08-24T01:53:55;101437.00;;;22.50
15626;BMP180;7912;51.376;6.126;2023-08-24T01:56:25;101439.00;;;22.50
15626;BMP180;7912;51.376;6.126;2023-08-24T01:58:52;101456.00;;;22.50
15626;BMP180;7912;51.376;6.126;2023-08-24T02:01:19;101445.00;;;22.50
15626;BMP180;7912;51.376;6.126;2023-08-24T02:03:46;101454.00;;;22.40
15626;BMP180;7912;51.376;6.126;2023-08-24T02:06:14;101439.00;;;22.40
15626;BMP180;7912;51.376;6.126;2023-08-24T02:08:41;101437.00;;;22.40
15626;BMP180;7912;51.376;6.126;2023-08-24T02:11:11;101439.00;;;22.40
15626;BMP180;7912;51.376;6.126;2023-08-24T02:13:42;101441.00;;;22.40
15626;BMP180;7912;51.376;6.126;2023-08-24T02:16:09;101438.00;;;22.40
15626;BMP180;7912;51.376;6.126;2023-08-24T02:18:37;101443.00;;;22.50
15626;BMP180;7912;51.376;6.126;2023-08-24T02:21:11;101449.00;;;22.50
15626;BMP180;7912;51.376;6.126;2023-08-24T02:23:40;101452.00;;;22.50
15626;BMP180;7912;51.376;6.126;2023-08-24T02:26:07;101452.00;;;22.50
15626;BMP180;7912;51.376;6.126;2023-08-24T02:28:37;101446.00;;;22.50
15626;BMP180;7912;51.376;6.126;2023-08-24T02:31:05;101434.00;;;22.50
15626;BMP180;7912;51.376;6.126;2023-08-24T02:33:34;101439.00;;;22.60
15626;BMP180;7912;51.376;6.126;2023-08-24T02:36:02;101434.00;;;22.60
15626;BMP180;7912;51.376;6.126;2023-08-24T02:38:29;101414.00;;;22.60
15626;BMP180;7912;51.376;6.126;2023-08-24T02:41:05;101413.00;;;22.60
15626;BMP180;7912;51.376;6.126;2023-08-24T02:43:34;101413.00;;;22.60
15626;BMP180;7912;51.376;6.126;2023-08-24T02:46:06;101397.00;;;22.60
15626;BMP180;7912;51.376;6.126;2023-08-24T02:48:35;101419.00;;;22.60
15626;BMP180;7912;51.376;6.126;2023-08-24T02:51:04;101409.00;;;22.60
15626;BMP180;7912;51.376;6.126;2023-08-24T02:53:33;101406.00;;;22.70
15626;BMP180;7912;51.376;6.126;2023-08-24T02:56:00;101405.00;;;22.70
15626;BMP180;7912;51.376;6.126;2023-08-24T02:58:28;101410.00;;;22.70
15626;BMP180;7912;51.376;6.126;2023-08-24T03:00:56;101408.00;;;22.70
15626;BMP180;7912;51.376;6.126;2023-08-24T03:03:24;101421.00;;;22.70
15626;BMP180;7912;51.376;6.126;2023-08-24T03:06:02;101435.00;;;22.80
15626;BMP180;7912;51.376;6.126;2023-08-24T03:08:30;101419.00;;;22.80
15626;BMP180;7912;51.376;6.126;2023-08-24T03:11:00;101436.00;;;22.80
15626;BMP180;7912;51.376;6.126;2023-08-24T03:13:29;101447.00;;;22.90
15626;BMP180;7912;51.376;6.126;2023-08-24T03:15:57;101451.00;;;22.90
15626;BMP180;7912;51.376;6.126;2023-08-24T03:18:27;101450.00;;;22.90
15626;BMP180;7912;51.376;6.126;2023-08-24T03:20:55;101443.00;;;23.00
15626;BMP180;7912;51.376;6.126;2023-08-24T03:23:23;101432.00;;;23.00
15626;BMP180;7912;51.376;6.126;2023-08-24T03:25:50;101436.00;;;23.10
15626;BMP180;7912;51.376;6.126;2023-08-24T03:28:18;101435.00;;;23.10
15626;BMP180;7912;51.376;6.126;2023-08-24T03:30:49;101420.00;;;23.10
15626;BMP180;7912;51.376;6.126;2023-08-24T03:33:17;101414.00;;;23.20
15626;BMP180;7912;51.376;6.126;2023-08-24T03:35:44;101403.00;;;23.20
15626;BMP180;7912;51.376;6.126;2023-08-24T03:38:13;101390.00;;;23.20
15626;BMP180;7912;51.376;6.126;2023-08-24T03:40:43;101393.00;;;23.20
15626;BMP180;7912;51.376;6.126;2023-08-24T03:43:11;101386.00;;;23.20
15626;BMP180;7912;51.376;6.126;2023-08-24T03:45:38;101364.00;;;23.10
15626;BMP180;7912;51.376;6.126;2023-08-24T03:48:06;101366.00;;;23.10
15626;BMP180;7912;51.376;6.126;2023-08-24T03:50:33;101373.00;;;23.10
15626;BMP180;7912;51.376;6.126;2023-08-24T03:53:03;101364.00;;;23.00
15626;BMP180;7912;51.376;6.126;2023-08-24T03:55:30;101362.00;;;23.00
15626;BMP180;7912;51.376;6.126;2023-08-24T03:58:00;101349.00;;;23.00
15626;BMP180;7912;51.376;6.126;2023-08-24T04:00:27;101329.00;;;23.00
15626;BMP180;7912;51.376;6.126;2023-08-24T04:02:54;101317.00;;;23.00
15626;BMP180;7912;51.376;6.126;2023-08-24T04:05:22;101298.00;;;22.90
15626;BMP180;7912;51.376;6.126;2023-08-24T04:07:52;101298.00;;;22.90
15626;BMP180;7912;51.376;6.126;2023-08-24T04:10:19;101290.00;;;22.90
15626;BMP180;7912;51.376;6.126;2023-08-24T04:12:47;101283.00;;;22.90
15626;BMP180;7912;51.376;6.126;2023-08-24T04:15:14;101278.00;;;22.90
15626;BMP180;7912;51.376;6.126;2023-08-24T04:17:41;101278.00;;;22.80
15626;BMP180;7912;51.376;6.126;2023-08-24T04:20:11;101276.00;;;22.80
15626;BMP180;7912;51.376;6.126;2023-08-24T04:22:38;101275.00;;;22.80
15626;BMP180;7912;51.376;6.126;2023-08-24T04:25:08;101270.00;;;22.80
15626;BMP180;7912;51.376;6.126;2023-08-24T04:27:36;101262.00;;;22.80
15626;BMP180;7912;51.376;6.126;2023-08-24T04:30:04;101241.00;;;22.80
15626;BMP180;7912;51.376;6.126;2023-08-24T04:32:32;101238.00;;;22.80
15626;BMP180;7912;51.376;6.126;2023-08-24T04:35:00;101240.00;;;22.80
15626;BMP180;7912;51.376;6.126;2023-08-24T04:37:27;101249.00;;;22.80
15626;BMP180;7912;51.376;6.126;2023-08-24T04:39:58;101253.00;;;22.90
15626;BMP180;7912;51.376;6.126;2023-08-24T04:42:28;101267.00;;;22.90
15626;BMP180;7912;51.376;6.126;2023-08-24T04:44:55;101256.00;;;22.90
15626;BMP180;7912;51.376;6.126;2023-08-24T04:47:26;101261.00;;;22.90
15626;BMP180;7912;51.376;6.126;2023-08-24T04:49:54;101251.00;;;22.90
15626;BMP180;7912;51.376;6.126;2023-08-24T04:52:21;101242.00;;;23.00
15626;BMP180;7912;51.376;6.126;2023-08-24T04:54:48;101250.00;;;23.00
15626;BMP180;7912;51.376;6.126;2023-08-24T04:57:22;101245.00;;;23.00
15626;BMP180;7912;51.376;6.126;2023-08-24T04:59:51;101245.00;;;23.00
15626;BMP180;7912;51.376;6.126;2023-08-24T05:02:18;101238.00;;;23.00
15626;BMP180;7912;51.376;6.126;2023-08-24T05:04:51;101245.00;;;23.00
15626;BMP180;7912;51.376;6.126;2023-08-24T05:07:19;101236.00;;;23.00
15626;BMP180;7912;51.376;6.126;2023-08-24T05:09:46;101252.00;;;23.00
15626;BMP180;7912;51.376;6.126;2023-08-24T05:12:16;101250.00;;;23.00
15626;BMP180;7912;51.376;6.126;2023-08-24T05:14:44;101261.00;;;23.00
15626;BMP180;7912;51.376;6.126;2023-08-24T05:17:12;101256.00;;;23.00
15626;BMP180;7912;51.376;6.126;2023-08-24T05:19:40;101270.00;;;23.00
15626;BMP180;7912;51.376;6.126;2023-08-24T05:22:07;101266.00;;;23.10
15626;BMP180;7912;51.376;6.126;2023-08-24T05:24:36;101269.00;;;23.10
15626;BMP180;7912;51.376;6.126;2023-08-24T05:27:03;101259.00;;;23.20
15626;BMP180;7912;51.376;6.126;2023-08-24T05:29:31;101249.00;;;23.20
15626;BMP180;7912;51.376;6.126;2023-08-24T05:31:59;101249.00;;;23.30
15626;BMP180;7912;51.376;6.126;2023-08-24T05:34:26;101238.00;;;23.30
15626;BMP180;7912;51.376;6.126;2023-08-24T05:36:56;101237.00;;;23.30
15626;BMP180;7912;51.376;6.126;2023-08-24T05:39:24;101247.00;;;23.30
15626;BMP180;7912;51.376;6.126;2023-08-24T05:41:52;101237.00;;;23.40
15626;BMP180;7912;51.376;6.126;2023-08-24T05:44:20;101247.00;;;23.40
15626;BMP180;7912;51.376;6.126;2023-08-24T05:46:48;101249.00;;;23.40
15626;BMP180;7912;51.376;6.126;2023-08-24T05:49:16;101254.00;;;23.50
15626;BMP180;7912;51.376;6.126;2023-08-24T05:51:43;101250.00;;;23.50
15626;BMP180;7912;51.376;6.126;2023-08-24T05:54:10;101259.00;;;23.50
15626;BMP180;7912;51.376;6.126;2023-08-24T05:56:38;101252.00;;;23.60
15626;BMP180;7912;51.376;6.126;2023-08-24T05:59:05;101253.00;;;23.60
15626;BMP180;7912;51.376;6.126;2023-08-24T06:01:33;101247.00;;;23.60
15626;BMP180;7912;51.376;6.126;2023-08-24T06:04:05;101245.00;;;23.70
15626;BMP180;7912;51.376;6.126;2023-08-24T06:06:33;101243.00;;;23.70
15626;BMP180;7912;51.376;6.126;2023-08-24T06:09:00;101239.00;;;23.60
15626;BMP180;7912;51.376;6.126;2023-08-24T06:11:27;101241.00;;;23.60
15626;BMP180;7912;51.376;6.126;2023-08-24T06:13:55;101226.00;;;23.70
15626;BMP180;7912;51.376;6.126;2023-08-24T06:16:23;101234.00;;;23.70
15626;BMP180;7912;51.376;6.126;2023-08-24T06:18:50;101227.00;;;23.70
15626;BMP180;7912;51.376;6.126;2023-08-24T06:21:21;101228.00;;;23.70
15626;BMP180;7912;51.376;6.126;2023-08-24T06:23:48;101227.00;;;23.70
15626;BMP180;7912;51.376;6.126;2023-08-24T06:26:19;101224.00;;;23.70
15626;BMP180;7912;51.376;6.126;2023-08-24T06:28:46;101224.00;;;23.70
15626;BMP180;7912;51.376;6.126;2023-08-24T06:31:14;101227.00;;;23.60
15626;BMP180;7912;51.376;6.126;2023-08-24T06:33:43;101227.00;;;23.60
15626;BMP180;7912;51.376;6.126;2023-08-24T06:36:10;101218.00;;;23.60
15626;BMP180;7912;51.376;6.126;2023-08-24T06:38:41;101208.00;;;23.60
15626;BMP180;7912;51.376;6.126;2023-08-24T06:41:08;101217.00;;;23.70
15626;BMP180;7912;51.376;6.126;2023-08-24T06:43:39;101208.00;;;23.70
15626;BMP180;7912;51.376;6.126;2023-08-24T06:46:07;101214.00;;;23.80
15626;BMP180;7912;51.376;6.126;2023-08-24T06:48:39;101208.00;;;23.80
15626;BMP180;7912;51.376;6.126;2023-08-24T06:51:06;101211.00;;;23.90
15626;BMP180;7912;51.376;6.126;2023-08-24T06:53:34;101203.00;;;23.90
15626;BMP180;7912;51.376;6.126;2023-08-24T06:56:03;101202.00;;;24.00
15626;BMP180;7912;51.376;6.126;2023-08-24T06:58:30;101198.00;;;24.10
15626;BMP180;7912;51.376;6.126;2023-08-24T07:00:58;101207.00;;;24.20
15626;BMP180;7912;51.376;6.126;2023-08-24T07:03:25;101197.00;;;24.20
15626;BMP180;7912;51.376;6.126;2023-08-24T07:05:53;101193.00;;;24.30
15626;BMP180;7912;51.376;6.126;2023-08-24T07:08:21;101189.00;;;24.40
15626;BMP180;7912;51.376;6.126;2023-08-24T07:10:48;101180.00;;;24.50
15626;BMP180;7912;51.376;6.126;2023-08-24T07:13:16;101171.00;;;24.70
15626;BMP180;7912;51.376;6.126;2023-08-24T07:15:43;101170.00;;;24.90
15626;BMP180;7912;51.376;6.126;2023-08-24T07:18:14;101165.00;;;25.20
15626;BMP180;7912;51.376;6.126;2023-08-24T07:20:42;101173.00;;;25.60
15626;BMP180;7912;51.376;6.126;2023-08-24T07:23:10;101165.00;;;26.00
15626;BMP180;7912;51.376;6.126;2023-08-24T07:29:01;101164.00;;;27.20
15626;BMP180;7912;51.376;6.126;2023-08-24T07:31:30;101171.00;;;27.70
15626;BMP180;7912;51.376;6.126;2023-08-24T07:33:58;101167.00;;;28.20
15626;BMP180;7912;51.376;6.126;2023-08-24T07:36:29;101163.00;;;29.00
15626;BMP180;7912;51.376;6.126;2023-08-24T07:38:57;101158.00;;;29.60
15626;BMP180;7912;51.376;6.126;2023-08-24T07:41:24;101158.00;;;30.20
15626;BMP180;7912;51.376;6.126;2023-08-24T07:43:55;101172.00;;;30.90
15626;BMP180;7912;51.376;6.126;2023-08-24T07:50:42;101179.00;;;31.90
15626;BMP180;7912;51.376;6.126;2023-08-24T07:53:09;101176.00;;;32.30
15626;BMP180;7912;51.376;6.126;2023-08-24T07:55:39;101180.00;;;32.50
15626;BMP180;7912;51.376;6.126;2023-08-24T07:58:07;101172.00;;;32.30
15626;BMP180;7912;51.376;6.126;2023-08-24T08:00:34;101156.00;;;32.00
15626;BMP180;7912;51.376;6.126;2023-08-24T08:03:02;101157.00;;;31.70
15626;BMP180;7912;51.376;6.126;2023-08-24T08:05:30;101140.00;;;31.40
15626;BMP180;7912;51.376;6.126;2023-08-24T08:07:58;101143.00;;;31.10
15626;BMP180;7912;51.376;6.126;2023-08-24T08:10:25;101138.00;;;31.00
15626;BMP180;7912;51.376;6.126;2023-08-24T08:12:52;101131.00;;;30.90
15626;BMP180;7912;51.376;6.126;2023-08-24T08:15:20;101143.00;;;30.80
15626;BMP180;7912;51.376;6.126;2023-08-24T08:17:48;101152.00;;;30.80
15626;BMP180;7912;51.376;6.126;2023-08-24T08:20:17;101155.00;;;30.80
15626;BMP180;7912;51.376;6.126;2023-08-24T08:22:44;101156.00;;;30.90
15626;BMP180;7912;51.376;6.126;2023-08-24T08:25:12;101157.00;;;30.90
15626;BMP180;7912;51.376;6.126;2023-08-24T08:27:39;101144.00;;;31.00
15626;BMP180;7912;51.376;6.126;2023-08-24T08:30:07;101137.00;;;31.00
15626;BMP180;7912;51.376;6.126;2023-08-24T08:32:35;101143.00;;;31.00
15626;BMP180;7912;51.376;6.126;2023-08-24T08:35:03;101149.00;;;31.00
15626;BMP180;7912;51.376;6.126;2023-08-24T08:37:31;101136.00;;;31.10
15626;BMP180;7912;51.376;6.126;2023-08-24T08:39:59;101147.00;;;31.20
15626;BMP180;7912;51.376;6.126;2023-08-24T08:42:30;101128.00;;;31.30
15626;BMP180;7912;51.376;6.126;2023-08-24T08:44:59;101129.00;;;31.50
15626;BMP180;7912;51.376;6.126;2023-08-24T08:47:26;101117.00;;;31.60
15626;BMP180;7912;51.376;6.126;2023-08-24T08:49:55;101110.00;;;31.70
15626;BMP180;7912;51.376;6.126;2023-08-24T08:52:23;101094.00;;;31.90
15626;BMP180;7912;51.376;6.126;2023-08-24T08:55:13;101106.00;;;32.30
15626;BMP180;7912;51.376;6.126;2023-08-24T08:57:42;101092.00;;;32.60
15626;BMP180;7912;51.376;6.126;2023-08-24T09:00:18;101091.00;;;33.00
15626;BMP180;7912;51.376;6.126;2023-08-24T09:02:49;101076.00;;;33.50
15626;BMP180;7912;51.376;6.126;2023-08-24T09:05:19;101063.00;;;33.80
15626;BMP180;7912;51.376;6.126;2023-08-24T09:07:55;101048.00;;;34.00
15626;BMP180;7912;51.376;6.126;2023-08-24T09:10:23;101045.00;;;34.30
15626;BMP180;7912;51.376;6.126;2023-08-24T09:12:51;101039.00;;;34.40
15626;BMP180;7912;51.376;6.126;2023-08-24T09:15:35;101028.00;;;34.60
15626;BMP180;7912;51.376;6.126;2023-08-24T09:18:04;101030.00;;;34.80
15626;BMP180;7912;51.376;6.126;2023-08-24T09:20:31;101026.00;;;35.00
15626;BMP180;7912;51.376;6.126;2023-08-24T09:22:59;101008.00;;;35.00
15626;BMP180;7912;51.376;6.126;2023-08-24T09:25:28;100997.00;;;35.10
15626;BMP180;7912;51.376;6.126;2023-08-24T09:32:08;100988.00;;;34.80
15626;BMP180;7912;51.376;6.126;2023-08-24T09:34:39;100994.00;;;34.70
15626;BMP180;7912;51.376;6.126;2023-08-24T09:37:15;100993.00;;;34.70
15626;BMP180;7912;51.376;6.126;2023-08-24T09:39:44;100985.00;;;34.60
15626;BMP180;7912;51.376;6.126;2023-08-24T09:42:14;100994.00;;;34.50
15626;BMP180;7912;51.376;6.126;2023-08-24T09:44:44;100992.00;;;34.50
15626;BMP180;7912;51.376;6.126;2023-08-24T09:47:14;101016.00;;;34.60
15626;BMP180;7912;51.376;6.126;2023-08-24T09:49:42;101028.00;;;34.70
15626;BMP180;7912;51.376;6.126;2023-08-24T09:52:13;101021.00;;;34.80
15626;BMP180;7912;51.376;6.126;2023-08-24T09:54:43;101032.00;;;35.10
15626;BMP180;7912;51.376;6.126;2023-08-24T09:57:11;101021.00;;;35.50
15626;BMP180;7912;51.376;6.126;2023-08-24T09:59:41;101044.00;;;35.60
15626;BMP180;7912;51.376;6.126;2023-08-24T10:02:19;101048.00;;;35.70
15626;BMP180;7912;51.376;6.126;2023-08-24T10:04:54;101045.00;;;35.80
15626;BMP180;7912;51.376;6.126;2023-08-24T10:07:25;101044.00;;;35.90
15626;BMP180;7912;51.376;6.126;2023-08-24T10:10:01;101055.00;;;35.90
15626;BMP180;7912;51.376;6.126;2023-08-24T10:12:44;101056.00;;;35.90
15626;BMP180;7912;51.376;6.126;2023-08-24T10:15:15;101063.00;;;36.00
15626;BMP180;7912;51.376;6.126;2023-08-24T10:17:45;101067.00;;;36.00
15626;BMP180;7912;51.376;6.126;2023-08-24T10:20:14;101077.00;;;36.00
15626;BMP180;7912;51.376;6.126;2023-08-24T10:22:43;101082.00;;;35.90
15626;BMP180;7912;51.376;6.126;2023-08-24T10:25:11;101081.00;;;35.90
15626;BMP180;7912;51.376;6.126;2023-08-24T10:27:40;101076.00;;;35.90
15626;BMP180;7912;51.376;6.126;2023-08-24T10:30:14;101061.00;;;35.90
15626;BMP180;7912;51.376;6.126;2023-08-24T10:32:44;101054.00;;;36.00
15626;BMP180;7912;51.376;6.126;2023-08-24T10:35:17;101042.00;;;36.20
15626;BMP180;7912;51.376;6.126;2023-08-24T10:37:44;101044.00;;;36.20
15626;BMP180;7912;51.376;6.126;2023-08-24T10:40:35;101038.00;;;36.20
15626;BMP180;7912;51.376;6.126;2023-08-24T10:43:04;101053.00;;;36.00
15626;BMP180;7912;51.376;6.126;2023-08-24T10:46:11;101051.00;;;35.90
15626;BMP180;7912;51.376;6.126;2023-08-24T10:54:02;101040.00;;;35.60
15626;BMP180;7912;51.376;6.126;2023-08-24T10:56:39;101049.00;;;35.50
15626;BMP180;7912;51.376;6.126;2023-08-24T10:59:17;101049.00;;;35.40
15626;BMP180;7912;51.376;6.126;2023-08-24T11:01:55;101051.00;;;35.20
15626;BMP180;7912;51.376;6.126;2023-08-24T11:04:23;101061.00;;;35.00
15626;BMP180;7912;51.376;6.126;2023-08-24T11:06:54;101076.00;;;34.90
15626;BMP180;7912;51.376;6.126;2023-08-24T11:09:23;101101.00;;;34.70
15626;BMP180;7912;51.376;6.126;2023-08-24T11:12:02;101114.00;;;34.50
15626;BMP180;7912;51.376;6.126;2023-08-24T11:14:31;101104.00;;;34.30
15626;BMP180;7912;51.376;6.126;2023-08-24T11:17:21;101089.00;;;34.10
15626;BMP180;7912;51.376;6.126;2023-08-24T11:19:52;101086.00;;;33.90
15626;BMP180;7912;51.376;6.126;2023-08-24T11:22:20;101086.00;;;33.80
15626;BMP180;7912;51.376;6.126;2023-08-24T11:24:50;101081.00;;;33.80
15626;BMP180;7912;51.376;6.126;2023-08-24T11:27:21;101078.00;;;33.80
15626;BMP180;7912;51.376;6.126;2023-08-24T11:30:01;101080.00;;;33.70
15626;BMP180;7912;51.376;6.126;2023-08-24T11:32:32;101076.00;;;33.70
15626;BMP180;7912;51.376;6.126;2023-08-24T11:34:59;101078.00;;;33.70
15626;BMP180;7912;51.376;6.126;2023-08-24T11:37:27;101073.00;;;33.70
15626;BMP180;7912;51.376;6.126;2023-08-24T11:39:54;101077.00;;;33.80
15626;BMP180;7912;51.376;6.126;2023-08-24T11:42:21;101075.00;;;33.80
15626;BMP180;7912;51.376;6.126;2023-08-24T11:44:50;101071.00;;;33.70
15626;BMP180;7912;51.376;6.126;2023-08-24T11:47:21;101054.00;;;33.70
15626;BMP180;7912;51.376;6.126;2023-08-24T11:53:50;101050.00;;;33.60
15626;BMP180;7912;51.376;6.126;2023-08-24T11:56:18;101037.00;;;33.50
15626;BMP180;7912;51.376;6.126;2023-08-24T11:58:49;101035.00;;;33.40
15626;BMP180;7912;51.376;6.126;2023-08-24T12:01:20;101016.00;;;33.30
15626;BMP180;7912;51.376;6.126;2023-08-24T12:03:48;100988.00;;;33.20
15626;BMP180;7912;51.376;6.126;2023-08-24T12:06:16;100987.00;;;32.90
15626;BMP180;7912;51.376;6.126;2023-08-24T12:08:48;100988.00;;;32.60
15626;BMP180;7912;51.376;6.126;2023-08-24T12:11:18;100980.00;;;32.40
15626;BMP180;7912;51.376;6.126;2023-08-24T12:13:51;100976.00;;;32.00
15626;BMP180;7912;51.376;6.126;2023-08-24T12:16:24;100966.00;;;31.70
15626;BMP180;7912;51.376;6.126;2023-08-24T12:18:56;100947.00;;;31.40
15626;BMP180;7912;51.376;6.126;2023-08-24T12:21:26;100950.00;;;31.20
15626;BMP180;7912;51.376;6.126;2023-08-24T12:24:05;100934.00;;;31.20
15626;BMP180;7912;51.376;6.126;2023-08-24T12:26:34;100926.00;;;31.10
15626;BMP180;7912;51.376;6.126;2023-08-24T12:29:07;100930.00;;;31.20
15626;BMP180;7912;51.376;6.126;2023-08-24T12:31:36;100938.00;;;31.20
15626;BMP180;7912;51.376;6.126;2023-08-24T12:34:06;100959.00;;;31.30
15626;BMP180;7912;51.376;6.126;2023-08-24T12:36:38;100959.00;;;31.50
15626;BMP180;7912;51.376;6.126;2023-08-24T12:39:07;100951.00;;;31.70
15626;BMP180;7912;51.376;6.126;2023-08-24T12:41:37;100944.00;;;31.90
15626;BMP180;7912;51.376;6.126;2023-08-24T12:44:05;100934.00;;;32.20
15626;BMP180;7912;51.376;6.126;2023-08-24T12:46:34;100930.00;;;32.40
15626;BMP180;7912;51.376;6.126;2023-08-24T12:49:03;100938.00;;;32.80
15626;BMP180;7912;51.376;6.126;2023-08-24T12:51:54;100944.00;;;33.10
15626;BMP180;7912;51.376;6.126;2023-08-24T12:54:30;100944.00;;;33.30
15626;BMP180;7912;51.376;6.126;2023-08-24T12:57:15;100948.00;;;33.50
15626;BMP180;7912;51.376;6.126;2023-08-24T13:00:04;100959.00;;;33.60
15626;BMP180;7912;51.376;6.126;2023-08-24T13:02:33;100964.00;;;33.60
15626;BMP180;7912;51.376;6.126;2023-08-24T13:05:11;100970.00;;;33.80
15626;BMP180;7912;51.376;6.126;2023-08-24T13:07:44;100955.00;;;33.80
15626;BMP180;7912;51.376;6.126;2023-08-24T13:10:11;100952.00;;;33.70
15626;BMP180;7912;51.376;6.126;2023-08-24T13:12:40;100940.00;;;33.60
15626;BMP180;7912;51.376;6.126;2023-08-24T13:15:09;100940.00;;;33.60
15626;BMP180;7912;51.376;6.126;2023-08-24T13:17:37;100933.00;;;33.70
15626;BMP180;7912;51.376;6.126;2023-08-24T13:20:05;100947.00;;;33.70
15626;BMP180;7912;51.376;6.126;2023-08-24T13:22:33;100952.00;;;33.80
15626;BMP180;7912;51.376;6.126;2023-08-24T13:25:01;100950.00;;;33.80
15626;BMP180;7912;51.376;6.126;2023-08-24T13:27:29;100945.00;;;33.80
15626;BMP180;7912;51.376;6.126;2023-08-24T13:30:02;100953.00;;;33.90
15626;BMP180;7912;51.376;6.126;2023-08-24T13:32:31;100941.00;;;33.90
15626;BMP180;7912;51.376;6.126;2023-08-24T13:35:03;100952.00;;;33.90
15626;BMP180;7912;51.376;6.126;2023-08-24T13:37:30;100955.00;;;33.90
15626;BMP180;7912;51.376;6.126;2023-08-24T13:39:59;100945.00;;;33.80
15626;BMP180;7912;51.376;6.126;2023-08-24T13:42:27;100945.00;;;33.70
15626;BMP180;7912;51.376;6.126;2023-08-24T13:44:54;100940.00;;;33.50
15626;BMP180;7912;51.376;6.126;2023-08-24T13:47:22;100942.00;;;33.40
15626;BMP180;7912;51.376;6.126;2023-08-24T13:49:49;100941.00;;;33.20
15626;BMP180;7912;51.376;6.126;2023-08-24T13:52:17;100927.00;;;33.10
15626;BMP180;7912;51.376;6.126;2023-08-24T13:54:46;100918.00;;;32.90
15626;BMP180;7912;51.376;6.126;2023-08-24T13:57:35;100933.00;;;32.80
15626;BMP180;7912;51.376;6.126;2023-08-24T14:00:06;100939.00;;;32.70
15626;BMP180;7912;51.376;6.126;2023-08-24T14:02:37;100924.00;;;32.50
15626;BMP180;7912;51.376;6.126;2023-08-24T14:05:06;100933.00;;;32.40
15626;BMP180;7912;51.376;6.126;2023-08-24T14:07:37;100936.00;;;32.30
15626;BMP180;7912;51.376;6.126;2023-08-24T14:10:05;100937.00;;;32.20
15626;BMP180;7912;51.376;6.126;2023-08-24T14:12:34;100946.00;;;32.00
15626;BMP180;7912;51.376;6.126;2023-08-24T14:15:02;100942.00;;;31.80
15626;BMP180;7912;51.376;6.126;2023-08-24T14:17:31;100942.00;;;31.60
15626;BMP180;7912;51.376;6.126;2023-08-24T14:19:59;100937.00;;;31.50
15626;BMP180;7912;51.376;6.126;2023-08-24T14:22:26;100925.00;;;31.30
15626;BMP180;7912;51.376;6.126;2023-08-24T14:24:53;100918.00;;;31.20
15626;BMP180;7912;51.376;6.126;2023-08-24T14:27:21;100916.00;;;31.00
15626;BMP180;7912;51.376;6.126;2023-08-24T14:29:50;100908.00;;;30.80
15626;BMP180;7912;51.376;6.126;2023-08-24T14:36:04;100893.00;;;30.20
15626;BMP180;7912;51.376;6.126;2023-08-24T14:38:32;100906.00;;;30.00
15626;BMP180;7912;51.376;6.126;2023-08-24T14:40:59;100898.00;;;29.80
15626;BMP180;7912;51.376;6.126;2023-08-24T14:43:30;100901.00;;;29.60
15626;BMP180;7912;51.376;6.126;2023-08-24T14:45:58;100905.00;;;29.50
15626;BMP180;7912;51.376;6.126;2023-08-24T14:48:25;100905.00;;;29.30
15626;BMP180;7912;51.376;6.126;2023-08-24T14:50:53;100912.00;;;29.10